Time;durP1;ratioP1;P1;durP2;ratioP2;P2;SDS_P1;SDS_P2;PMS_P1;PMS_P2;Temp;Humidity;BMP_temperature;BMP_pressure;BME280_temperature;BME280_humidity;BME280_pressure;Samples;Min_cycle;Max_cycle;Signal;HPM_P1;HPM_P2
2023/05/28 00:02:49;;;;;;;7.57;2.67;;;;;;;18.14;45.21;100458.47;10296896;28;20593;-67
2023/05/28 00:07:51;;;;;;;9.25;3.67;;;;;;;18.08;45.34;100461.84;10306916;28;20062;-65
2023/05/28 00:12:53;;;;;;;5.05;3.08;;;;;;;17.95;45.35;100462.31;10309600;28;20046;-68
2023/05/28 00:17:54;;;;;;;9.82;3.88;;;;;;;17.91;45.34;100445.66;10307105;28;20046;-65
2023/05/28 00:22:56;;;;;;;7.43;3.55;;;;;;;17.88;45.40;100434.31;10293749;28;20046;-67
2023/05/28 00:27:57;;;;;;;6.72;3.55;;;;;;;17.88;45.30;100440.56;10301114;28;20077;-67
2023/05/28 00:32:58;;;;;;;5.82;3.25;;;;;;;17.83;45.59;100437.53;10308056;28;20698;-69
2023/05/28 00:38:00;;;;;;;4.47;3.00;;;;;;;17.80;45.66;100437.84;10308019;28;20232;-66
2023/05/28 00:43:01;;;;;;;5.35;3.60;;;;;;;17.76;45.71;100433.81;10308521;28;20139;-67
2023/05/28 00:48:03;;;;;;;5.35;3.78;;;;;;;17.70;46.12;100431.78;10307571;28;20073;-69
2023/05/28 00:53:04;;;;;;;6.72;3.67;;;;;;;17.66;45.87;100431.28;10294056;28;20065;-68
2023/05/28 00:58:07;;;;;;;5.88;2.95;;;;;;;17.67;45.83;100435.66;10290617;28;20467;-67
2023/05/28 01:03:09;;;;;;;6.05;3.15;;;;;;;17.66;45.81;100431.28;10297310;28;20096;-69
2023/05/28 01:08:11;;;;;;;5.38;2.67;;;;;;;17.57;45.88;100422.34;10301652;28;20072;-63
2023/05/28 01:13:12;;;;;;;6.43;3.05;;;;;;;17.58;46.05;100424.03;10311489;28;20835;-68
2023/05/28 01:18:14;;;;;;;6.50;2.92;;;;;;;17.55;46.19;100420.81;10314514;28;20974;-70
2023/05/28 01:23:20;;;;;;;4.78;3.10;;;;;;;17.52;46.16;100426.53;10313869;28;20050;-69
2023/05/28 01:28:22;;;;;;;6.78;2.75;;;;;;;17.47;45.81;100432.41;10326714;28;20057;-68
2023/05/28 01:33:24;;;;;;;6.30;3.53;;;;;;;17.39;46.47;100432.41;10319835;28;20042;-65
2023/05/28 01:38:26;;;;;;;8.20;3.45;;;;;;;17.31;46.63;100414.38;10314328;28;20042;-68
2023/05/28 01:43:28;;;;;;;5.95;3.67;;;;;;;17.34;46.60;100423.97;10310371;28;20076;-65
2023/05/28 01:48:30;;;;;;;5.18;3.40;;;;;;;17.24;46.38;100406.13;10314218;28;20057;-66
2023/05/28 01:53:31;;;;;;;4.38;3.33;;;;;;;17.26;46.71;100425.63;10294028;28;20077;-70
2023/05/28 01:58:33;;;;;;;4.15;3.05;;;;;;;17.17;46.81;100409.63;10312848;28;20433;-64
2023/05/28 02:03:34;;;;;;;8.43;4.18;;;;;;;17.16;46.54;100419.53;10310455;28;20053;-65
2023/05/28 02:08:36;;;;;;;4.55;3.20;;;;;;;17.09;46.72;100415.81;10315358;28;20046;-67
2023/05/28 02:13:39;;;;;;;5.50;3.53;;;;;;;17.04;46.92;100408.25;10302974;28;20050;-67
2023/05/28 02:18:40;;;;;;;4.00;2.92;;;;;;;17.04;47.32;100412.75;10307930;28;20062;-67
2023/05/28 02:23:44;;;;;;;6.28;2.97;;;;;;;16.95;47.35;100407.34;10300067;28;20062;-66
2023/05/28 02:28:46;;;;;;;4.28;3.30;;;;;;;16.89;47.51;100396.38;10310505;28;20104;-68
2023/05/28 02:33:47;;;;;;;6.40;2.88;;;;;;;16.86;47.45;100400.22;10306217;28;20057;-67
2023/05/28 02:38:48;;;;;;;5.47;3.38;;;;;;;16.83;47.48;100391.63;10310959;28;20125;-67
2023/05/28 02:43:50;;;;;;;5.88;2.85;;;;;;;16.79;47.75;100401.88;10308408;28;20050;-68
2023/05/28 02:48:51;;;;;;;7.20;4.00;;;;;;;16.69;47.64;100379.63;10295761;28;20050;-67
2023/05/28 02:53:53;;;;;;;6.85;3.63;;;;;;;16.66;48.12;100385.34;10303822;28;20059;-67
2023/05/28 02:58:54;;;;;;;7.15;3.45;;;;;;;16.63;48.19;100389.19;10312300;28;20108;-68
2023/05/28 03:03:56;;;;;;;5.10;3.40;;;;;;;16.54;48.03;100388.31;10304784;28;20140;-69
2023/05/28 03:08:57;;;;;;;7.32;3.22;;;;;;;16.52;48.43;100389.47;10309848;28;20074;-68
2023/05/28 03:13:58;;;;;;;5.68;3.40;;;;;;;16.50;48.29;100395.00;10307694;28;20132;-67
2023/05/28 03:19:00;;;;;;;6.25;2.85;;;;;;;16.39;48.30;100377.31;10301576;28;20047;-67
2023/05/28 03:24:01;;;;;;;7.85;4.80;;;;;;;16.37;48.48;100386.50;10307731;28;20064;-67
2023/05/28 03:29:03;;;;;;;4.82;3.10;;;;;;;16.34;48.73;100389.53;10293836;28;20058;-67
2023/05/28 03:34:04;;;;;;;5.40;3.60;;;;;;;16.26;49.10;100390.31;10308112;28;20061;-67
2023/05/28 03:39:07;;;;;;;6.80;3.45;;;;;;;16.25;49.05;100389.44;10306787;28;20050;-68
2023/05/28 03:44:09;;;;;;;6.83;3.57;;;;;;;16.20;49.28;100391.78;10305407;28;20072;-67
2023/05/28 03:49:10;;;;;;;5.45;2.97;;;;;;;16.23;49.23;100396.84;10310918;28;20093;-67
2023/05/28 03:54:12;;;;;;;5.35;3.40;;;;;;;16.13;49.58;100396.09;10310434;28;20057;-68
2023/05/28 03:59:13;;;;;;;5.13;3.35;;;;;;;16.11;49.65;100389.16;10307610;28;20787;-67
2023/05/28 04:04:15;;;;;;;4.95;3.35;;;;;;;16.20;49.86;100391.78;10304432;28;20081;-67
2023/05/28 04:09:17;;;;;;;4.45;3.40;;;;;;;16.16;50.00;100390.41;10308810;28;20093;-67
2023/05/28 04:14:19;;;;;;;6.82;4.57;;;;;;;16.16;50.13;100394.94;10295184;28;20054;-67
2023/05/28 04:19:20;;;;;;;5.88;3.55;;;;;;;16.15;50.39;100396.75;10306527;28;20050;-67
2023/05/28 04:24:21;;;;;;;5.15;3.40;;;;;;;16.13;50.74;100395.25;10308226;28;20056;-67
2023/05/28 04:29:28;;;;;;;6.30;3.72;;;;;;;16.14;50.13;100400.47;10303581;28;20073;-69
2023/05/28 04:34:33;;;;;;;7.05;3.50;;;;;;;16.06;50.35;100389.63;10296078;28;20058;-69
2023/05/28 04:39:35;;;;;;;6.15;4.00;;;;;;;16.09;50.72;100408.13;10291064;28;20065;-69
2023/05/28 04:44:36;;;;;;;7.70;4.20;;;;;;;16.08;50.67;100407.28;10302875;28;20062;-69
2023/05/28 04:49:39;;;;;;;7.03;3.67;;;;;;;16.09;50.61;100416.19;10306983;28;20141;-67
2023/05/28 04:54:40;;;;;;;4.78;3.10;;;;;;;16.15;50.52;100414.72;10303355;28;20685;-68
2023/05/28 04:59:44;;;;;;;7.03;3.55;;;;;;;16.16;50.40;100417.25;10309455;28;20111;-67
2023/05/28 05:04:45;;;;;;;6.80;3.40;;;;;;;16.19;50.69;100419.63;10307580;28;20046;-67
2023/05/28 05:09:47;;;;;;;4.70;3.15;;;;;;;16.19;50.30;100422.31;10305117;28;20046;-68
2023/05/28 05:14:48;;;;;;;4.95;3.55;;;;;;;16.31;50.24;100424.75;10302831;28;20157;-68
2023/05/28 05:19:50;;;;;;;5.68;3.67;;;;;;;16.36;50.65;100417.06;10297005;28;20046;-67
2023/05/28 05:24:51;;;;;;;5.07;3.53;;;;;;;16.48;50.54;100421.16;10303346;28;20728;-68
2023/05/28 05:29:52;;;;;;;7.20;3.30;;;;;;;16.50;50.18;100416.50;10307887;28;20116;-68
2023/05/28 05:34:54;;;;;;;5.82;3.15;;;;;;;16.63;49.89;100415.22;10308267;28;20046;-68
2023/05/28 05:39:56;;;;;;;5.82;3.17;;;;;;;16.66;49.88;100406.84;10303733;28;20124;-68
2023/05/28 05:44:57;;;;;;;6.65;3.78;;;;;;;16.74;49.61;100418.47;10295716;28;20057;-68
2023/05/28 05:49:59;;;;;;;6.05;4.10;;;;;;;16.83;49.65;100414.00;10306007;28;20133;-67
2023/05/28 05:55:01;;;;;;;4.82;3.00;;;;;;;16.90;49.77;100409.69;10310975;28;20042;-68
2023/05/28 06:00:08;;;;;;;6.55;3.00;;;;;;;17.03;49.92;100419.16;10313612;28;20058;-67
2023/05/28 06:05:10;;;;;;;7.80;3.22;;;;;;;17.09;49.48;100413.97;10322361;28;20054;-68
2023/05/28 06:10:12;;;;;;;3.13;2.83;;;;;;;17.25;49.65;100423.94;10316916;28;20054;-67
2023/05/28 06:15:14;;;;;;;5.53;2.80;;;;;;;17.38;49.75;100428.84;10299674;28;20046;-67
2023/05/28 06:20:16;;;;;;;4.43;2.97;;;;;;;17.42;48.89;100406.00;10316882;28;20050;-68
2023/05/28 06:25:18;;;;;;;4.38;2.65;;;;;;;17.61;48.70;100434.47;10303630;28;20081;-67
2023/05/28 06:30:19;;;;;;;6.20;3.30;;;;;;;17.74;48.86;100425.06;10301572;28;20153;-68
2023/05/28 06:35:21;;;;;;;7.75;3.40;;;;;;;17.88;49.14;100421.72;10314101;28;20132;-67
2023/05/28 06:40:23;;;;;;;4.38;2.88;;;;;;;18.07;48.57;100427.81;10310276;28;20444;-69
2023/05/28 06:45:25;;;;;;;5.47;2.80;;;;;;;18.15;47.73;100430.50;10297299;28;20535;-69
2023/05/28 06:50:26;;;;;;;6.20;3.38;;;;;;;18.31;47.51;100435.88;10308950;28;20087;-67
2023/05/28 06:55:28;;;;;;;5.07;3.22;;;;;;;18.39;46.83;100448.53;10308409;28;20137;-67
2023/05/28 07:00:30;;;;;;;4.18;2.50;;;;;;;18.54;46.83;100436.03;10302984;28;20108;-68
2023/05/28 07:05:32;;;;;;;4.85;2.60;;;;;;;18.63;46.69;100436.88;10300552;28;20072;-68
2023/05/28 07:10:33;;;;;;;4.32;3.00;;;;;;;18.73;45.88;100436.66;10314877;28;20054;-68
2023/05/28 07:15:35;;;;;;;5.05;2.90;;;;;;;18.92;46.00;100437.31;10311607;28;20130;-69
2023/05/28 07:20:40;;;;;;;5.07;3.08;;;;;;;18.96;45.54;100428.72;10307928;28;20053;-68
2023/05/28 07:25:42;;;;;;;4.72;3.28;;;;;;;19.08;45.90;100438.09;10297363;28;20398;-68
2023/05/28 07:30:43;;;;;;;4.35;2.88;;;;;;;19.21;45.22;100431.28;10308009;28;20042;-68
2023/05/28 07:35:46;;;;;;;7.15;3.00;;;;;;;19.41;44.26;100435.25;10307286;28;20057;-68
2023/05/28 07:40:47;;;;;;;5.93;2.83;;;;;;;19.54;43.69;100437.34;10298522;28;20060;-67
2023/05/28 07:45:49;;;;;;;4.57;2.72;;;;;;;19.78;44.39;100444.50;10294959;28;20115;-68
2023/05/28 07:50:51;;;;;;;5.97;3.00;;;;;;;19.91;43.51;100437.69;10310532;28;20046;-69
2023/05/28 07:55:53;;;;;;;16.05;14.52;;;;;;;20.08;43.48;100433.81;10310741;28;20058;-67
2023/05/28 08:00:55;;;;;;;5.50;3.78;;;;;;;20.33;43.43;100432.75;10293320;28;20197;-69
2023/05/28 08:05:56;;;;;;;7.20;3.20;;;;;;;20.49;42.26;100425.34;10291670;28;20133;-67
2023/05/28 08:10:58;;;;;;;4.18;2.70;;;;;;;20.68;41.50;100428.56;10306361;28;20065;-70
2023/05/28 08:15:59;;;;;;;7.20;2.67;;;;;;;20.70;42.10;100415.66;10306936;28;20498;-68
2023/05/28 08:21:07;;;;;;;4.93;3.17;;;;;;;20.99;41.72;100420.25;10303466;28;20053;-68
2023/05/28 08:26:08;;;;;;;3.83;3.05;;;;;;;21.15;41.63;100413.81;10321680;28;20062;-67
2023/05/28 08:31:10;;;;;;;6.05;3.10;;;;;;;21.34;40.88;100412.34;10306525;28;20070;-67
2023/05/28 08:36:11;;;;;;;8.30;2.88;;;;;;;21.44;39.85;100413.91;10299982;28;20058;-65
2023/05/28 08:41:13;;;;;;;6.88;4.00;;;;;;;21.68;39.46;100412.75;10296656;28;20554;-70
2023/05/28 08:46:15;;;;;;;4.57;2.55;;;;;;;21.74;39.42;100409.28;10296269;28;20787;-68
2023/05/28 08:51:20;;;;;;;5.50;3.83;;;;;;;21.87;38.55;100403.13;10305961;28;20051;-68
2023/05/28 08:56:22;;;;;;;5.97;3.00;;;;;;;21.92;38.57;100394.41;10306925;28;20054;-67
2023/05/28 09:01:23;;;;;;;6.05;2.97;;;;;;;22.14;38.77;100398.78;10309524;28;20488;-67
2023/05/28 09:06:25;;;;;;;7.15;3.25;;;;;;;22.33;37.73;100386.47;10294745;28;20520;-67
2023/05/28 09:11:26;;;;;;;6.18;3.28;;;;;;;22.50;36.94;100389.69;10289848;28;20227;-67
2023/05/28 09:16:28;;;;;;;3.42;2.83;;;;;;;22.75;37.16;100386.50;10294141;28;20050;-68
2023/05/28 09:21:30;;;;;;;6.97;3.30;;;;;;;22.99;37.22;100382.47;10296485;28;20394;-68
2023/05/28 09:26:32;;;;;;;4.40;3.03;;;;;;;23.10;37.29;100386.50;10293642;28;20126;-67
2023/05/28 09:31:33;;;;;;;4.78;3.03;;;;;;;23.39;36.85;100379.06;10312657;28;20153;-67
2023/05/28 09:36:36;;;;;;;9.15;3.38;;;;;;;23.48;36.14;100372.44;10313292;28;20591;-67
2023/05/28 09:41:43;;;;;;;6.23;3.20;;;;;;;23.69;36.77;100370.56;10293671;28;20068;-67
2023/05/28 09:46:46;;;;;;;8.10;3.15;;;;;;;23.97;34.23;100368.50;10313918;28;20285;-69
2023/05/28 09:51:52;;;;;;;5.70;2.97;;;;;;;24.20;34.65;100363.69;10316411;28;20057;-68
2023/05/28 09:56:57;;;;;;;5.82;3.20;;;;;;;24.21;33.40;100355.34;10313012;28;20094;-68
2023/05/28 10:02:05;;;;;;;7.78;3.45;;;;;;;24.40;33.43;100361.78;10314680;28;20073;-68
2023/05/28 10:07:10;;;;;;;5.07;2.95;;;;;;;24.44;32.90;100351.31;10293542;28;20046;-69
2023/05/28 10:12:18;;;;;;;6.07;3.30;;;;;;;24.68;33.22;100342.50;10313062;28;20042;-68
2023/05/28 10:17:21;;;;;;;3.85;3.03;;;;;;;24.90;33.46;100344.09;10308935;28;20057;-68
2023/05/28 10:22:22;;;;;;;2.95;2.47;;;;;;;25.13;33.87;100349.00;10308854;28;20607;-68
2023/05/28 10:27:30;;;;;;;4.28;3.20;;;;;;;25.21;30.93;100346.06;10288443;28;20517;-69
2023/05/28 10:32:43;;;;;;;5.07;3.03;;;;;;;25.37;31.25;100348.28;10309706;28;20046;-71
2023/05/28 10:37:45;;;;;;;4.90;2.70;;;;;;;25.50;31.35;100327.47;10313044;28;20054;-72
2023/05/28 10:42:47;;;;;;;5.57;2.90;;;;;;;25.60;30.32;100330.53;10317808;28;20140;-69
2023/05/28 10:47:53;;;;;;;6.68;2.58;;;;;;;25.75;30.17;100339.22;10301273;28;20062;-69
2023/05/28 10:53:08;;;;;;;4.75;3.72;;;;;;;25.98;29.35;100335.03;10309203;28;20061;-69
2023/05/28 10:58:11;;;;;;;5.03;3.08;;;;;;;26.21;29.10;100326.28;10309440;28;20050;-69
2023/05/28 11:03:13;;;;;;;5.03;2.95;;;;;;;26.39;28.70;100330.91;10300689;28;20101;-69
2023/05/28 11:08:16;;;;;;;3.88;2.58;;;;;;;26.54;27.11;100322.34;10301323;28;20057;-69
2023/05/28 11:13:17;;;;;;;4.15;2.50;;;;;;;26.51;27.24;100316.50;10311455;28;20467;-69
2023/05/28 11:18:19;;;;;;;3.92;2.50;;;;;;;26.67;26.09;100309.63;10311549;28;20061;-69
2023/05/28 11:23:20;;;;;;;5.55;3.40;;;;;;;26.80;26.11;100314.94;10309732;28;20538;-71
2023/05/28 11:28:22;;;;;;;5.85;2.60;;;;;;;26.81;25.59;100302.94;10310913;28;20574;-69
2023/05/28 11:33:26;;;;;;;4.20;2.80;;;;;;;26.81;26.33;100295.59;10313837;28;20057;-69
2023/05/28 11:38:28;;;;;;;4.75;2.67;;;;;;;26.97;24.88;100293.28;10305438;28;20078;-69
2023/05/28 11:43:29;;;;;;;4.90;3.25;;;;;;;27.18;25.92;100289.19;10315521;28;20050;-69
2023/05/28 11:48:36;;;;;;;3.42;3.03;;;;;;;27.05;25.79;100284.75;10307980;28;20203;-68
2023/05/28 11:53:43;;;;;;;6.18;4.22;;;;;;;27.12;26.59;100292.84;10308219;28;20239;-69
2023/05/28 11:58:48;;;;;;;4.15;3.13;;;;;;;27.14;26.92;100277.91;10304526;28;20203;-69
2023/05/28 12:03:49;;;;;;;5.93;3.72;;;;;;;27.19;27.14;100274.47;10312040;28;20054;-69
2023/05/28 12:08:51;;;;;;;6.43;3.47;;;;;;;27.35;28.03;100281.19;10296308;28;20486;-70
2023/05/28 12:13:53;;;;;;;5.88;3.30;;;;;;;27.46;27.05;100277.66;10309614;28;20137;-70
2023/05/28 12:19:00;;;;;;;4.15;3.42;;;;;;;27.50;27.62;100284.34;10314719;28;20137;-70
2023/05/28 12:24:10;;;;;;;7.57;3.40;;;;;;;27.44;26.66;100268.88;10316541;28;20115;-72
2023/05/28 12:29:14;;;;;;;5.03;3.13;;;;;;;27.33;27.64;100259.56;10306314;28;20327;-71
2023/05/28 12:34:16;;;;;;;5.40;3.23;;;;;;;27.22;27.87;100267.69;10316978;28;20053;-70
2023/05/28 12:39:17;;;;;;;5.88;3.20;;;;;;;27.26;28.34;100264.28;10307711;28;20088;-69
2023/05/28 12:44:19;;;;;;;4.95;3.90;;;;;;;27.26;28.23;100263.44;10309360;28;20161;-69
2023/05/28 12:49:20;;;;;;;4.15;3.15;;;;;;;27.36;27.88;100263.72;10316160;28;20185;-69
2023/05/28 12:54:22;;;;;;;6.97;3.25;;;;;;;27.38;27.50;100264.31;10318361;28;20069;-71
2023/05/28 12:59:26;;;;;;;4.68;2.85;;;;;;;27.34;28.08;100255.78;10336270;28;20507;-68
2023/05/28 13:04:27;;;;;;;5.13;3.22;;;;;;;27.34;27.37;100249.47;10315538;28;20135;-70
2023/05/28 13:09:29;;;;;;;4.65;3.05;;;;;;;27.22;26.73;100240.38;10312144;28;20049;-69
2023/05/28 13:14:31;;;;;;;3.10;2.67;;;;;;;27.16;27.39;100237.53;10322550;28;20520;-69
2023/05/28 13:19:33;;;;;;;4.72;3.55;;;;;;;27.20;27.51;100237.06;10312641;28;20215;-69
2023/05/28 13:24:34;;;;;;;4.38;3.47;;;;;;;27.23;26.65;100225.66;10322016;28;20192;-70
2023/05/28 13:29:47;;;;;;;4.00;3.38;;;;;;;27.12;27.33;100225.38;10325523;28;20049;-70
2023/05/28 13:34:49;;;;;;;4.07;2.85;;;;;;;27.10;27.69;100227.53;10311465;28;20045;-68
2023/05/28 13:39:51;;;;;;;5.63;3.65;;;;;;;27.11;27.76;100217.44;10323172;28;20171;-69
2023/05/28 13:44:52;;;;;;;4.38;2.92;;;;;;;27.02;27.99;100216.94;10317719;28;20046;-68
2023/05/28 13:49:54;;;;;;;5.97;3.38;;;;;;;26.96;27.91;100221.44;10307971;28;20649;-69
2023/05/28 13:54:56;;;;;;;5.60;3.28;;;;;;;26.85;28.17;100221.41;10332994;28;20220;-68
2023/05/28 14:00:00;;;;;;;4.43;3.40;;;;;;;26.83;28.41;100204.41;10313403;28;20042;-69
2023/05/28 14:05:01;;;;;;;4.30;2.88;;;;;;;26.83;28.86;100204.41;10319444;28;20050;-69
2023/05/28 14:10:03;;;;;;;5.15;3.15;;;;;;;26.80;28.16;100200.25;10312251;28;20125;-69
2023/05/28 14:15:05;;;;;;;5.50;3.03;;;;;;;26.71;28.93;100202.47;10310328;28;20060;-69
2023/05/28 14:20:08;;;;;;;5.43;3.63;;;;;;;26.53;29.32;100197.84;10316660;28;20133;-69
2023/05/28 14:25:10;;;;;;;5.55;3.08;;;;;;;26.52;29.38;100187.16;10317634;28;20298;-69
2023/05/28 14:30:13;;;;;;;6.35;3.00;;;;;;;26.46;28.73;100189.75;10316661;28;20063;-69
2023/05/28 14:35:14;;;;;;;5.03;3.45;;;;;;;26.42;29.84;100194.03;10315005;28;20292;-69
2023/05/28 14:40:19;;;;;;;4.82;2.53;;;;;;;26.33;29.87;100189.09;10333220;28;20138;-71
2023/05/28 14:45:20;;;;;;;4.30;2.80;;;;;;;26.34;30.53;100177.13;10316773;28;20102;-68
2023/05/28 14:50:22;;;;;;;4.55;2.80;;;;;;;26.32;30.61;100171.03;10314950;28;20085;-67
2023/05/28 14:55:24;;;;;;;3.97;2.95;;;;;;;26.28;30.57;100176.13;10305072;28;20054;-71
2023/05/28 15:00:25;;;;;;;4.68;2.97;;;;;;;26.20;30.30;100171.00;10303582;28;20140;-70
2023/05/28 15:05:27;;;;;;;3.20;2.58;;;;;;;26.14;30.50;100163.72;10313729;28;20066;-71
2023/05/28 15:10:29;;;;;;;4.80;2.88;;;;;;;26.15;31.00;100165.38;10318613;28;20077;-71
2023/05/28 15:15:31;;;;;;;5.45;3.78;;;;;;;26.03;30.72;100147.06;10326039;28;20046;-67
2023/05/28 15:20:32;;;;;;;5.65;2.95;;;;;;;26.03;30.36;100159.88;10314476;28;20046;-70
2023/05/28 15:25:34;;;;;;;5.15;2.80;;;;;;;25.89;30.59;100143.63;10310441;28;20081;-69
2023/05/28 15:30:36;;;;;;;4.85;3.17;;;;;;;25.90;30.68;100152.66;10290710;28;20194;-69
2023/05/28 15:35:37;;;;;;;4.38;3.33;;;;;;;25.86;30.77;100143.25;10310437;28;20639;-69
2023/05/28 15:40:39;;;;;;;5.03;3.30;;;;;;;25.86;30.01;100144.06;10312056;28;20101;-69
2023/05/28 15:45:41;;;;;;;5.43;3.13;;;;;;;25.84;30.53;100126.31;10315823;28;20054;-68
2023/05/28 15:50:42;;;;;;;4.80;3.38;;;;;;;25.83;30.61;100138.25;10311072;28;20081;-67
2023/05/28 15:55:44;;;;;;;3.63;2.72;;;;;;;25.79;30.27;100131.59;10301919;28;20120;-68
2023/05/28 16:00:46;;;;;;;6.43;3.20;;;;;;;25.75;30.68;100128.50;10311505;28;20042;-68
2023/05/28 16:05:48;;;;;;;4.43;2.95;;;;;;;25.72;30.50;100123.50;10313284;28;20132;-67
2023/05/28 16:10:50;;;;;;;3.38;2.80;;;;;;;25.73;30.85;100119.69;10310190;28;20094;-69
2023/05/28 16:15:52;;;;;;;3.50;2.60;;;;;;;25.73;31.25;100120.53;10313256;28;20248;-69
2023/05/28 16:20:54;;;;;;;4.82;2.88;;;;;;;25.75;31.25;100121.13;10313234;28;20050;-70
2023/05/28 16:25:57;;;;;;;4.53;3.20;;;;;;;25.70;31.39;100110.09;10302870;28;20054;-68
2023/05/28 16:30:59;;;;;;;5.70;3.15;;;;;;;25.66;31.60;100106.16;10298826;28;20168;-70
2023/05/28 16:36:00;;;;;;;4.53;2.70;;;;;;;25.68;32.05;100104.03;10308745;28;20042;-70
2023/05/28 16:41:03;;;;;;;4.40;2.40;;;;;;;25.67;31.80;100105.09;10307900;28;20132;-70
2023/05/28 16:46:04;;;;;;;3.28;2.75;;;;;;;25.63;31.50;100092.97;10298273;28;20046;-69
2023/05/28 16:51:06;;;;;;;3.13;2.17;;;;;;;25.58;30.78;100095.53;10306575;28;20132;-68
2023/05/28 16:56:08;;;;;;;4.97;2.65;;;;;;;25.50;30.88;100088.50;10305758;28;20210;-69
2023/05/28 17:01:12;;;;;;;4.93;2.80;;;;;;;25.48;31.22;100092.53;10308932;28;20080;-65
2023/05/28 17:06:14;;;;;;;5.03;2.40;;;;;;;25.46;31.02;100090.03;10308347;28;20046;-70
2023/05/28 17:11:15;;;;;;;3.85;2.75;;;;;;;25.39;31.31;100084.63;10305695;28;20136;-68
2023/05/28 17:16:18;;;;;;;4.50;2.63;;;;;;;25.29;31.44;100092.44;10306745;28;20174;-70
2023/05/28 17:21:20;;;;;;;5.47;2.60;;;;;;;25.26;31.26;100101.06;10297743;28;20046;-69
2023/05/28 17:26:21;;;;;;;4.93;2.90;;;;;;;25.18;31.04;100106.81;10301822;28;20057;-71
2023/05/28 17:31:22;;;;;;;5.28;3.28;;;;;;;25.16;31.28;100106.19;10303616;28;20050;-70
2023/05/28 17:36:24;;;;;;;3.63;2.35;;;;;;;25.13;31.96;100103.91;10309226;28;20658;-67
2023/05/28 17:41:26;;;;;;;7.88;3.33;;;;;;;25.01;31.80;100101.94;10311439;28;20137;-67
2023/05/28 17:46:36;;;;;;;5.68;2.92;;;;;;;24.98;32.36;100117.88;10310480;28;20093;-66
2023/05/28 17:51:38;;;;;;;4.65;3.35;;;;;;;24.91;32.41;100122.56;10314087;28;20045;-67
2023/05/28 17:56:39;;;;;;;3.65;2.95;;;;;;;24.84;32.05;100122.59;10318584;28;20076;-68
2023/05/28 18:01:44;;;;;;;4.88;2.38;;;;;;;24.73;31.30;100121.41;10315871;28;20060;-68
2023/05/28 18:06:46;;;;;;;3.83;2.28;;;;;;;24.72;31.56;100135.25;10316355;28;20053;-70
2023/05/28 18:11:47;;;;;;;5.28;2.60;;;;;;;24.59;31.14;100137.00;10307087;28;20841;-67
2023/05/28 18:16:49;;;;;;;5.00;2.60;;;;;;;24.55;31.62;100141.16;10297493;28;20137;-68
2023/05/28 18:21:50;;;;;;;3.22;2.17;;;;;;;24.48;31.42;100145.81;10305463;28;20046;-68
2023/05/28 18:26:52;;;;;;;3.47;2.85;;;;;;;24.39;31.60;100141.69;10313496;28;20061;-68
2023/05/28 18:31:54;;;;;;;3.97;2.53;;;;;;;24.29;31.94;100145.72;10315649;28;20084;-67
2023/05/28 18:36:56;;;;;;;3.25;2.72;;;;;;;24.25;32.02;100144.47;10314803;28;20081;-67
2023/05/28 18:41:58;;;;;;;4.15;2.65;;;;;;;24.22;32.54;100153.06;10308543;28;20053;-69
2023/05/28 18:46:59;;;;;;;3.50;2.10;;;;;;;24.06;32.63;100153.53;10310998;28;20137;-69
2023/05/28 18:52:02;;;;;;;4.57;2.60;;;;;;;23.97;32.58;100151.03;10312883;28;20080;-69
2023/05/28 18:57:05;;;;;;;2.97;2.53;;;;;;;23.88;32.50;100160.47;10312048;28;20171;-69
2023/05/28 19:02:07;;;;;;;3.83;2.80;;;;;;;23.80;33.00;100166.97;10314142;28;20057;-69
2023/05/28 19:07:09;;;;;;;3.13;1.90;;;;;;;23.69;32.68;100180.34;10286183;28;20058;-69
2023/05/28 19:12:10;;;;;;;2.92;1.92;;;;;;;23.54;32.77;100178.72;10301397;28;20379;-69
2023/05/28 19:17:12;;;;;;;2.50;2.20;;;;;;;23.45;33.10;100186.25;10302410;28;20058;-68
2023/05/28 19:22:13;;;;;;;3.60;2.17;;;;;;;23.41;33.09;100192.31;10311073;28;20050;-69
2023/05/28 19:27:15;;;;;;;4.53;2.00;;;;;;;23.22;33.09;100186.66;10301600;28;20049;-68
2023/05/28 19:32:16;;;;;;;4.05;2.53;;;;;;;23.15;33.29;100193.97;10298079;28;20054;-71
2023/05/28 19:37:18;;;;;;;4.53;2.47;;;;;;;23.06;32.93;100215.03;10296261;28;20049;-71
2023/05/28 19:42:19;;;;;;;5.32;2.50;;;;;;;22.89;33.40;100203.69;10315703;28;20054;-70
2023/05/28 19:47:21;;;;;;;3.75;1.92;;;;;;;22.86;33.33;100214.97;10301392;28;20049;-70
2023/05/28 19:52:23;;;;;;;4.68;3.03;;;;;;;22.83;33.38;100220.81;10314864;28;20138;-67
2023/05/28 19:57:25;;;;;;;3.70;2.58;;;;;;;22.74;33.35;100224.75;10317651;28;20054;-69
2023/05/28 20:02:28;;;;;;;3.65;2.60;;;;;;;22.60;33.69;100230.13;10299739;28;20058;-69
2023/05/28 20:07:30;;;;;;;3.13;2.10;;;;;;;22.60;33.25;100238.28;10306777;28;20471;-71
2023/05/28 20:12:31;;;;;;;2.50;1.67;;;;;;;22.45;33.66;100245.72;10294514;28;20045;-67
2023/05/28 20:17:33;;;;;;;3.30;1.83;;;;;;;22.41;33.68;100239.88;10296306;28;20054;-70
2023/05/28 20:22:34;;;;;;;3.42;2.35;;;;;;;22.39;33.40;100241.13;10311532;28;20053;-71
2023/05/28 20:27:39;;;;;;;3.85;2.17;;;;;;;22.22;33.06;100252.25;10304433;28;20059;-68
2023/05/28 20:32:40;;;;;;;2.40;1.98;;;;;;;22.17;33.75;100254.75;10295180;28;20043;-66
2023/05/28 20:37:45;;;;;;;3.22;2.47;;;;;;;22.15;33.93;100267.63;10298697;28;20105;-71
2023/05/28 20:42:47;;;;;;;3.15;2.50;;;;;;;22.03;34.30;100263.81;10308543;28;20057;-68
2023/05/28 20:47:48;;;;;;;2.65;2.00;;;;;;;22.05;34.27;100267.16;10309920;28;20417;-68
2023/05/28 20:52:50;;;;;;;3.25;2.08;;;;;;;21.89;34.84;100269.16;10303618;28;20136;-69
2023/05/28 20:57:51;;;;;;;4.13;2.60;;;;;;;21.92;34.75;100281.47;10308545;28;20058;-68
2023/05/28 21:02:55;;;;;;;3.00;2.22;;;;;;;21.91;34.97;100292.50;10295560;28;20050;-69
2023/05/28 21:07:57;;;;;;;3.92;2.28;;;;;;;21.85;35.20;100286.81;10303933;28;20800;-68
2023/05/28 21:12:59;;;;;;;3.10;2.13;;;;;;;21.70;35.47;100281.50;10289708;28;20061;-69
2023/05/28 21:18:00;;;;;;;4.00;2.42;;;;;;;21.63;35.70;100296.88;10304873;28;20132;-69
2023/05/28 21:23:02;;;;;;;4.85;2.28;;;;;;;21.56;35.84;100301.41;10308433;28;20061;-68
2023/05/28 21:28:03;;;;;;;4.13;2.20;;;;;;;21.47;36.11;100292.53;10314112;28;20578;-68
2023/05/28 21:33:04;;;;;;;3.80;1.75;;;;;;;21.39;36.80;100300.75;10298367;28;20852;-67
2023/05/28 21:38:06;;;;;;;4.05;2.30;;;;;;;21.41;36.91;100309.56;10315199;28;20041;-69
2023/05/28 21:43:07;;;;;;;3.50;1.98;;;;;;;21.14;37.33;100298.44;10308033;28;20061;-69
2023/05/28 21:48:08;;;;;;;3.33;2.47;;;;;;;21.17;37.36;100300.75;10313132;28;20515;-67
2023/05/28 21:53:12;;;;;;;5.82;2.53;;;;;;;21.12;37.80;100300.50;10311189;28;20057;-71
2023/05/28 21:58:14;;;;;;;2.47;2.10;;;;;;;21.11;37.82;100300.72;10316535;28;20057;-71
2023/05/28 22:03:15;;;;;;;4.13;2.08;;;;;;;21.06;37.90;100305.84;10305222;28;20070;-69
2023/05/28 22:08:17;;;;;;;3.15;2.70;;;;;;;20.99;38.37;100305.78;10310867;28;20054;-68
2023/05/28 22:13:19;;;;;;;4.80;3.25;;;;;;;20.95;39.03;100307.19;10296586;28;20054;-68
2023/05/28 22:18:20;;;;;;;4.05;2.72;;;;;;;20.86;39.10;100311.03;10312193;28;20667;-68
2023/05/28 22:23:22;;;;;;;6.35;2.67;;;;;;;20.76;39.77;100311.31;10310605;28;20456;-67
2023/05/28 22:28:23;;;;;;;4.63;2.67;;;;;;;20.73;39.86;100317.97;10302162;28;20558;-67
2023/05/28 22:33:27;;;;;;;3.17;2.70;;;;;;;20.65;40.28;100315.31;10309190;28;20124;-65
2023/05/28 22:38:28;;;;;;;;;;;;;;;20.53;40.46;100330.34;10312041;28;20046;-69
2023/05/28 22:43:29;;;;;;;4.63;2.50;;;;;;;20.48;40.35;100326.31;10311506;28;20615;-68
2023/05/28 22:48:32;;;;;;;4.15;2.58;;;;;;;20.39;40.50;100313.09;10298730;28;20046;-68
2023/05/28 22:53:33;;;;;;;5.28;2.55;;;;;;;20.32;40.81;100321.09;10307080;28;20054;-69
2023/05/28 22:58:34;;;;;;;3.78;2.65;;;;;;;20.06;41.32;100313.44;10309776;28;20145;-67
2023/05/28 23:03:36;;;;;;;3.55;2.15;;;;;;;20.13;41.17;100322.47;10311354;28;20057;-66
2023/05/28 23:08:38;;;;;;;4.55;2.75;;;;;;;19.99;41.46;100323.31;10312554;28;20064;-68